Time;durP1;ratioP1;P1;durP2;ratioP2;P2;SDS_P1;SDS_P2;PMS_P1;PMS_P2;Temp;Humidity;BMP_temperature;BMP_pressure;BME280_temperature;BME280_humidity;BME280_pressure;Samples;Min_cycle;Max_cycle;Signal;HPM_P1;HPM_P2
2022/05/28 05:00:11;;;;;;;5.10;2.63;;;13.50;97.20;;;;;;1734709;28;20214;-71
2022/05/28 05:01:02;;;;;;;6.38;2.92;;;13.50;97.20;;;;;;1734710;28;20231;-71
2022/05/28 05:01:53;;;;;;;5.73;2.47;;;13.50;97.20;;;;;;1734605;28;20203;-72
2022/05/28 05:02:44;;;;;;;7.65;3.45;;;13.50;97.20;;;;;;1734537;28;20492;-71
2022/05/28 05:03:36;;;;;;;5.03;2.23;;;13.50;97.20;;;;;;1734581;28;20203;-71
2022/05/28 05:04:26;;;;;;;6.72;2.70;;;13.40;97.20;;;;;;1734487;28;20199;-71
2022/05/28 05:05:19;;;;;;;10.07;3.33;;;13.40;97.20;;;;;;1734664;28;20203;-71
2022/05/28 05:06:10;;;;;;;8.32;2.45;;;13.40;97.20;;;;;;1734475;28;20281;-71
2022/05/28 05:07:02;;;;;;;5.00;2.50;;;13.40;97.20;;;;;;1734321;28;20187;-71
2022/05/28 05:07:52;;;;;;;7.72;2.97;;;13.40;97.20;;;;;;1733943;28;20579;-71
2022/05/28 05:08:44;;;;;;;10.83;3.20;;;13.40;97.20;;;;;;1734646;28;20195;-71
2022/05/28 05:09:35;;;;;;;10.00;2.30;;;13.40;97.20;;;;;;1734653;28;20333;-71
2022/05/28 05:10:27;;;;;;;8.17;2.70;;;13.40;97.20;;;;;;1734539;28;20335;-71
2022/05/28 05:11:17;;;;;;;4.70;2.53;;;13.40;97.20;;;;;;1734325;28;20254;-71
2022/05/28 05:12:10;;;;;;;6.80;3.00;;;13.40;97.20;;;;;;1734403;28;20196;-71
2022/05/28 05:13:01;;;;;;;6.80;2.70;;;13.40;97.20;;;;;;1734569;28;20694;-71
2022/05/28 05:13:53;;;;;;;8.30;2.40;;;13.40;97.20;;;;;;1734452;28;20196;-71
2022/05/28 05:14:44;;;;;;;5.55;2.00;;;13.40;97.20;;;;;;1734428;28;20227;-71
2022/05/28 05:15:39;;;;;;;5.60;2.07;;;13.40;97.20;;;;;;1734518;28;20203;-71
2022/05/28 05:16:29;;;;;;;5.22;2.45;;;13.40;97.20;;;;;;1734466;28;20224;-71
2022/05/28 05:17:21;;;;;;;6.37;2.77;;;13.40;97.20;;;;;;1734204;28;20218;-71
2022/05/28 05:18:12;;;;;;;5.78;2.15;;;13.40;97.20;;;;;;1734386;28;20939;-71
2022/05/28 05:19:03;;;;;;;11.43;3.30;;;13.40;97.20;;;;;;1734505;28;20560;-71
2022/05/28 05:19:54;;;;;;;6.95;2.55;;;13.40;97.20;;;;;;1733951;28;20230;-71
2022/05/28 05:20:46;;;;;;;5.93;2.40;;;13.40;97.20;;;;;;1734492;28;20196;-71
2022/05/28 05:21:37;;;;;;;5.47;2.47;;;13.40;97.20;;;;;;1734482;28;20223;-71
2022/05/28 05:22:29;;;;;;;5.97;2.77;;;13.50;97.20;;;;;;1734494;28;20208;-71
2022/05/28 05:23:19;;;;;;;7.53;2.85;;;13.50;97.20;;;;;;1734455;28;20200;-71
2022/05/28 05:24:11;;;;;;;8.50;3.10;;;13.50;97.20;;;;;;1734451;28;20656;-71
2022/05/28 05:25:03;;;;;;;5.75;2.10;;;13.50;97.20;;;;;;1734478;28;20262;-71
2022/05/28 05:25:55;;;;;;;7.85;2.83;;;13.50;97.20;;;;;;1734233;28;20199;-71
2022/05/28 05:26:46;;;;;;;10.70;3.47;;;13.50;97.20;;;;;;1734148;28;20214;-71
2022/05/28 05:27:38;;;;;;;9.70;2.60;;;13.50;97.20;;;;;;1734455;28;20295;-71
2022/05/28 05:28:29;;;;;;;5.13;2.70;;;13.60;97.20;;;;;;1734403;28;20478;-71
2022/05/28 05:29:20;;;;;;;6.17;3.20;;;13.60;97.20;;;;;;1734489;28;20207;-71
2022/05/28 05:30:12;;;;;;;6.55;2.70;;;13.60;97.20;;;;;;1734421;28;20227;-71
2022/05/28 05:31:05;;;;;;;6.38;3.17;;;13.60;97.20;;;;;;1734436;28;20203;-71
2022/05/28 05:31:56;;;;;;;7.07;2.42;;;13.60;97.20;;;;;;1734342;28;20563;-71
2022/05/28 05:32:47;;;;;;;7.50;3.30;;;13.70;97.20;;;;;;1734397;28;20222;-71
2022/05/28 05:33:38;;;;;;;9.05;2.78;;;13.70;97.20;;;;;;1734111;28;20231;-71
2022/05/28 05:34:30;;;;;;;5.83;2.47;;;13.70;97.20;;;;;;1734299;28;20663;-70
2022/05/28 05:35:21;;;;;;;8.30;2.70;;;13.70;97.20;;;;;;1734431;28;20239;-71
2022/05/28 05:36:13;;;;;;;5.25;2.58;;;13.70;97.20;;;;;;1734280;28;20199;-71
2022/05/28 05:37:04;;;;;;;9.55;2.95;;;13.70;97.20;;;;;;1734012;28;20270;-71
2022/05/28 05:37:56;;;;;;;7.53;2.75;;;13.70;97.20;;;;;;1734290;28;20242;-71
2022/05/28 05:38:47;;;;;;;8.00;3.00;;;13.70;97.20;;;;;;1734283;28;20322;-71
2022/05/28 05:39:39;;;;;;;6.73;3.30;;;13.70;97.20;;;;;;1734406;28;20350;-71
2022/05/28 05:40:30;;;;;;;7.85;2.60;;;13.70;97.20;;;;;;1734375;28;20573;-71
2022/05/28 05:41:21;;;;;;;6.80;2.80;;;13.80;97.20;;;;;;1734410;28;20283;-71
2022/05/28 05:42:12;;;;;;;4.65;2.95;;;13.80;97.20;;;;;;1734356;28;20238;-71
2022/05/28 05:43:04;;;;;;;8.00;3.53;;;13.80;97.20;;;;;;1734352;28;20207;-71
2022/05/28 05:43:55;;;;;;;8.60;3.40;;;13.80;97.20;;;;;;1734285;28;20204;-71
2022/05/28 05:44:47;;;;;;;11.10;3.00;;;13.80;97.20;;;;;;1734174;28;20227;-71
2022/05/28 05:45:38;;;;;;;8.90;3.00;;;13.80;97.20;;;;;;1734354;28;20737;-71
2022/05/28 05:46:31;;;;;;;7.15;2.60;;;13.80;97.20;;;;;;1734117;28;20231;-71
2022/05/28 05:47:22;;;;;;;5.90;3.20;;;13.80;97.20;;;;;;1734339;28;20235;-71
2022/05/28 05:48:14;;;;;;;7.63;2.90;;;13.90;97.20;;;;;;1734246;28;20210;-71
2022/05/28 05:49:04;;;;;;;11.55;2.80;;;13.90;97.20;;;;;;1734339;28;20605;-71
2022/05/28 05:49:56;;;;;;;7.47;3.10;;;13.90;97.20;;;;;;1733970;28;20286;-71
2022/05/28 05:50:47;;;;;;;8.68;2.70;;;13.90;97.20;;;;;;1734230;28;20200;-71
2022/05/28 05:51:44;;;;;;;11.70;3.80;;;13.90;97.20;;;;;;1734361;28;20199;-71
2022/05/28 05:52:35;;;;;;;9.57;3.08;;;13.90;97.20;;;;;;1734331;28;20203;-71
2022/05/28 05:53:27;;;;;;;5.88;2.80;;;14.00;97.20;;;;;;1734252;28;20254;-71
2022/05/28 05:54:19;;;;;;;5.22;2.65;;;14.00;97.20;;;;;;1759581;22;20204;-73
2022/05/28 05:55:11;;;;;;;11.68;3.17;;;14.00;97.20;;;;;;1747951;28;20271;-73
2022/05/28 05:56:02;;;;;;;6.50;3.15;;;14.00;97.20;;;;;;1747803;28;20205;-73
2022/05/28 05:56:54;;;;;;;8.60;3.38;;;14.00;97.20;;;;;;1747426;28;20286;-73
2022/05/28 05:57:45;;;;;;;11.23;3.78;;;14.10;97.20;;;;;;1747957;28;20222;-73
2022/05/28 05:58:37;;;;;;;8.47;3.33;;;14.10;97.20;;;;;;1748038;28;20205;-73
2022/05/28 05:59:28;;;;;;;9.60;3.75;;;14.10;97.20;;;;;;1747978;28;20206;-73
2022/05/28 06:00:20;;;;;;;6.37;3.50;;;14.20;97.20;;;;;;1747960;28;20717;-73
2022/05/28 06:01:10;;;;;;;7.82;3.10;;;14.20;97.20;;;;;;1747922;28;20476;-73
2022/05/28 06:02:04;;;;;;;9.53;3.03;;;14.20;97.20;;;;;;1748020;28;20209;-73
2022/05/28 06:02:55;;;;;;;5.13;2.50;;;14.20;97.20;;;;;;1747915;28;20206;-73
2022/05/28 06:03:46;;;;;;;7.97;3.07;;;14.20;97.20;;;;;;1747923;28;20205;-73
2022/05/28 06:04:37;;;;;;;7.18;2.70;;;14.20;97.20;;;;;;1742902;28;20223;-73
2022/05/28 06:05:29;;;;;;;6.90;2.93;;;14.30;97.20;;;;;;1741101;28;20205;-73
2022/05/28 06:06:20;;;;;;;7.32;3.17;;;14.30;97.20;;;;;;1739367;28;20480;-73
2022/05/28 06:07:12;;;;;;;7.15;2.63;;;14.30;97.20;;;;;;1739987;28;20199;-73
2022/05/28 06:08:03;;;;;;;7.35;2.85;;;14.30;97.20;;;;;;1740768;28;20577;-74
2022/05/28 06:08:55;;;;;;;7.70;3.10;;;14.40;97.20;;;;;;1741122;28;20336;-73
2022/05/28 06:09:46;;;;;;;6.07;2.70;;;14.40;97.20;;;;;;1741127;28;20206;-72
2022/05/28 06:10:38;;;;;;;6.70;3.27;;;14.40;97.20;;;;;;1741181;28;20201;-73
2022/05/28 06:11:28;;;;;;;7.97;3.45;;;14.40;97.20;;;;;;1740978;28;20203;-73
2022/05/28 06:12:20;;;;;;;7.97;3.63;;;14.40;97.20;;;;;;1741066;28;20278;-73
2022/05/28 06:13:11;;;;;;;10.25;3.75;;;14.50;97.20;;;;;;1740983;28;20294;-73
2022/05/28 06:14:03;;;;;;;7.10;2.80;;;14.50;97.20;;;;;;1741007;28;20206;-74
2022/05/28 06:14:53;;;;;;;7.38;2.90;;;14.50;97.20;;;;;;1741047;28;20286;-73
2022/05/28 06:15:46;;;;;;;6.33;2.90;;;14.60;97.20;;;;;;1741048;28;20202;-73
2022/05/28 06:16:36;;;;;;;10.57;2.40;;;14.60;97.20;;;;;;1740692;28;20256;-73
2022/05/28 06:17:30;;;;;;;6.00;2.77;;;14.60;97.20;;;;;;1741042;28;20203;-73
2022/05/28 06:18:21;;;;;;;6.70;2.63;;;14.60;97.20;;;;;;1740910;28;20446;-73
2022/05/28 06:19:13;;;;;;;6.40;2.53;;;14.70;97.20;;;;;;1741055;28;20203;-73
2022/05/28 06:20:08;;;;;;;8.82;2.70;;;14.70;97.20;;;;;;1741092;28;20210;-73
2022/05/28 06:21:00;;;;;;;7.00;2.67;;;14.70;97.20;;;;;;1741091;28;20711;-72
2022/05/28 06:21:51;;;;;;;8.25;3.35;;;14.70;97.20;;;;;;1741099;28;20233;-73
2022/05/28 06:22:43;;;;;;;6.00;2.63;;;14.80;97.20;;;;;;1740801;28;20195;-73
2022/05/28 06:23:34;;;;;;;5.00;2.50;;;14.80;97.20;;;;;;1740987;28;20237;-73
2022/05/28 06:24:26;;;;;;;9.07;3.20;;;14.80;97.20;;;;;;1740904;28;20211;-73
2022/05/28 06:25:17;;;;;;;6.15;2.33;;;14.80;97.20;;;;;;1740995;28;20210;-73
2022/05/28 06:26:09;;;;;;;7.60;3.00;;;14.80;97.20;;;;;;1740943;28;20290;-73
2022/05/28 06:27:01;;;;;;;7.07;1.98;;;14.80;97.20;;;;;;1740644;28;21058;-73
2022/05/28 06:27:52;;;;;;;3.75;2.05;;;14.90;97.20;;;;;;1741121;28;20265;-73
2022/05/28 06:28:43;;;;;;;7.00;2.95;;;14.90;97.20;;;;;;1741130;28;20195;-73
2022/05/28 06:29:35;;;;;;;7.27;2.00;;;14.90;97.20;;;;;;1741068;28;20673;-73
2022/05/28 06:30:26;;;;;;;5.50;2.72;;;14.90;97.20;;;;;;1740906;28;20245;-73
2022/05/28 06:31:17;;;;;;;6.60;2.70;;;15.00;97.20;;;;;;1740967;28;20226;-72
2022/05/28 06:32:08;;;;;;;7.30;2.20;;;15.00;97.20;;;;;;1740905;28;20449;-73
2022/05/28 06:33:02;;;;;;;7.50;2.65;;;15.00;97.20;;;;;;1740979;28;20199;-73
2022/05/28 06:33:53;;;;;;;6.45;2.40;;;15.10;97.20;;;;;;1740939;28;20199;-72
2022/05/28 06:34:44;;;;;;;6.07;2.53;;;15.10;97.20;;;;;;1741000;28;20256;-73
2022/05/28 06:35:36;;;;;;;4.45;2.35;;;15.10;97.20;;;;;;1741078;28;20195;-73
2022/05/28 06:36:27;;;;;;;7.85;2.30;;;15.20;97.20;;;;;;1740842;28;20203;-73
2022/05/28 06:37:19;;;;;;;7.70;2.67;;;15.20;97.20;;;;;;1740731;28;20213;-73
2022/05/28 06:38:10;;;;;;;7.40;2.65;;;15.20;97.20;;;;;;1740876;28;20206;-73
2022/05/28 06:39:02;;;;;;;7.00;2.90;;;15.20;97.20;;;;;;1740692;28;20201;-73
2022/05/28 06:39:52;;;;;;;7.47;2.00;;;15.30;97.20;;;;;;1740786;28;20446;-73
2022/05/28 06:40:44;;;;;;;6.63;2.37;;;15.30;97.20;;;;;;1741040;28;20274;-73
2022/05/28 06:41:35;;;;;;;6.43;2.33;;;15.30;97.20;;;;;;1742332;28;20202;-72
2022/05/28 06:42:27;;;;;;;7.03;2.80;;;15.30;97.20;;;;;;1742332;28;20195;-73
2022/05/28 06:43:18;;;;;;;5.60;2.45;;;15.30;97.20;;;;;;1742313;28;20446;-73
2022/05/28 06:44:09;;;;;;;8.50;2.40;;;15.40;97.20;;;;;;1742174;28;20210;-73
2022/05/28 06:45:00;;;;;;;8.23;1.90;;;15.30;97.20;;;;;;1742295;28;20249;-73
2022/05/28 06:45:52;;;;;;;3.77;1.83;;;15.30;97.20;;;;;;1742216;28;20194;-73
2022/05/28 06:46:43;;;;;;;6.30;2.20;;;15.30;97.20;;;;;;1741940;28;20477;-73
2022/05/28 06:47:35;;;;;;;4.07;2.27;;;15.30;97.20;;;;;;1742419;28;20195;-73
2022/05/28 06:48:27;;;;;;;3.97;1.95;;;15.30;97.20;;;;;;1742256;28;20678;-73
2022/05/28 06:49:18;;;;;;;4.07;1.70;;;15.40;97.20;;;;;;1742259;28;20256;-72
2022/05/28 06:51:21;;;;;;;7.65;2.42;;;15.30;97.20;;;;;;1742467;28;20677;-73
2022/05/28 06:52:12;;;;;;;7.43;2.22;;;15.40;97.20;;;;;;1742316;28;20249;-73
2022/05/28 06:53:07;;;;;;;2.80;1.57;;;15.40;97.20;;;;;;1742375;28;20199;-73
2022/05/28 06:53:59;;;;;;;5.35;2.05;;;15.40;97.20;;;;;;1742129;28;20200;-73
2022/05/28 06:54:50;;;;;;;3.88;1.80;;;15.40;97.20;;;;;;1741766;28;20230;-73
2022/05/28 06:55:41;;;;;;;5.70;2.17;;;15.50;97.20;;;;;;1742362;28;20222;-73
2022/05/28 06:56:32;;;;;;;4.25;1.60;;;15.50;97.20;;;;;;1741869;28;20226;-73
2022/05/28 06:57:24;;;;;;;9.10;2.70;;;15.50;97.20;;;;;;1742194;28;20199;-73
2022/05/28 06:58:15;;;;;;;5.60;1.83;;;15.60;97.20;;;;;;1742110;28;20704;-73
2022/05/28 06:59:07;;;;;;;6.40;2.17;;;15.60;97.20;;;;;;1742227;28;20678;-72
2022/05/28 06:59:58;;;;;;;6.05;2.10;;;15.60;97.20;;;;;;1742186;28;20469;-72
2022/05/28 07:00:49;;;;;;;2.80;1.70;;;15.70;97.20;;;;;;1742334;28;20199;-73
2022/05/28 07:01:40;;;;;;;8.73;2.25;;;15.70;97.20;;;;;;1742228;28;20230;-73
2022/05/28 07:02:32;;;;;;;5.47;1.70;;;15.70;97.20;;;;;;1742186;28;20203;-73
2022/05/28 07:03:25;;;;;;;4.55;1.70;;;15.80;97.20;;;;;;1742134;28;20238;-73
2022/05/28 07:04:18;;;;;;;6.05;2.10;;;15.80;97.20;;;;;;1742085;28;20245;-73
2022/05/28 07:05:11;;;;;;;6.97;1.92;;;15.80;97.20;;;;;;1742159;28;20292;-73
2022/05/28 07:06:03;;;;;;;3.70;1.95;;;15.90;97.20;;;;;;1742169;28;20726;-73
2022/05/28 07:06:56;;;;;;;9.25;2.88;;;15.90;97.20;;;;;;1741862;28;20310;-73
2022/05/28 07:07:48;;;;;;;3.63;1.73;;;16.00;97.20;;;;;;1741964;28;20244;-73
2022/05/28 07:08:39;;;;;;;4.53;1.98;;;16.00;97.20;;;;;;1742220;28;20234;-73
2022/05/28 07:09:31;;;;;;;8.17;1.97;;;16.00;97.20;;;;;;1742067;28;20206;-73
2022/05/28 07:10:23;;;;;;;5.03;1.70;;;16.00;97.20;;;;;;1741851;28;20199;-72
2022/05/28 07:11:15;;;;;;;3.58;1.30;;;16.10;97.20;;;;;;1742107;28;20199;-73
2022/05/28 07:12:06;;;;;;;4.55;1.60;;;16.10;97.20;;;;;;1742210;28;20206;-72
2022/05/28 07:12:58;;;;;;;6.78;2.05;;;16.20;97.20;;;;;;1742195;28;20278;-73
2022/05/28 07:13:50;;;;;;;5.05;1.70;;;16.20;97.20;;;;;;1742108;28;20257;-73
2022/05/28 07:14:41;;;;;;;3.38;1.70;;;16.20;97.20;;;;;;1742069;28;20721;-73
2022/05/28 07:15:32;;;;;;;4.13;1.57;;;16.30;97.20;;;;;;1742150;28;20573;-73
2022/05/28 07:16:23;;;;;;;2.45;1.20;;;16.30;97.20;;;;;;1742134;28;20214;-73
2022/05/28 07:17:15;;;;;;;6.10;1.87;;;16.20;97.20;;;;;;1741828;28;20734;-72
2022/05/28 07:18:06;;;;;;;5.18;1.92;;;16.30;97.20;;;;;;1742026;28;20203;-73
2022/05/28 07:18:58;;;;;;;3.65;2.10;;;16.30;97.20;;;;;;1742157;28;20637;-73
2022/05/28 07:19:50;;;;;;;5.80;1.55;;;16.30;97.20;;;;;;1742092;28;20234;-73
2022/05/28 07:20:43;;;;;;;4.43;1.40;;;16.30;97.20;;;;;;1742203;28;20228;-73
2022/05/28 07:21:34;;;;;;;5.63;1.63;;;16.30;97.20;;;;;;1742167;28;20659;-73
2022/05/28 07:22:26;;;;;;;5.43;1.80;;;16.30;97.20;;;;;;1742050;28;20595;-73
2022/05/28 07:23:18;;;;;;;8.23;1.80;;;16.30;97.20;;;;;;1742143;28;20237;-73
2022/05/28 07:24:10;;;;;;;4.90;1.70;;;16.40;97.20;;;;;;1742032;28;20203;-73
2022/05/28 07:25:01;;;;;;;6.13;1.50;;;16.40;97.20;;;;;;1742134;28;20686;-73
2022/05/28 07:25:59;;;;;;;3.77;1.33;;;16.40;97.20;;;;;;1742014;28;20561;-73
2022/05/28 07:26:51;;;;;;;4.45;1.35;;;16.40;97.20;;;;;;1741395;28;20196;-72
2022/05/28 07:27:43;;;;;;;4.05;1.60;;;16.50;97.20;;;;;;1742055;28;20317;-73
2022/05/28 07:28:36;;;;;;;11.65;2.08;;;16.50;97.20;;;;;;1742089;28;20203;-73
2022/05/28 07:29:28;;;;;;;4.75;1.80;;;16.50;97.20;;;;;;1742014;28;20213;-73
2022/05/28 07:30:18;;;;;;;4.75;1.92;;;16.50;97.20;;;;;;1741964;28;20678;-73
2022/05/28 07:31:13;;;;;;;7.17;1.97;;;16.60;97.20;;;;;;1741985;28;20673;-73
2022/05/28 07:32:05;;;;;;;3.95;1.75;;;16.60;97.20;;;;;;1742006;28;20203;-73
2022/05/28 07:32:56;;;;;;;6.75;2.42;;;16.60;97.20;;;;;;1742161;28;20199;-74
2022/05/28 07:33:49;;;;;;;5.75;2.35;;;16.60;97.20;;;;;;1741995;28;20639;-73
2022/05/28 07:34:40;;;;;;;6.00;1.48;;;16.70;97.20;;;;;;1742032;28;20262;-73
2022/05/28 07:35:33;;;;;;;3.47;1.40;;;16.70;97.20;;;;;;1742109;28;20213;-73
2022/05/28 07:36:24;;;;;;;4.90;1.63;;;16.60;97.20;;;;;;1742073;28;20199;-73
2022/05/28 07:37:16;;;;;;;4.13;1.58;;;16.60;97.20;;;;;;1741805;28;20214;-73
2022/05/28 07:38:06;;;;;;;3.28;1.73;;;16.60;97.20;;;;;;1742011;28;20717;-74
2022/05/28 07:38:58;;;;;;;5.73;1.70;;;16.60;97.20;;;;;;1741994;28;20572;-73
2022/05/28 07:39:49;;;;;;;4.72;1.70;;;16.60;97.20;;;;;;1741918;28;20206;-73
2022/05/28 07:40:41;;;;;;;6.03;1.80;;;16.60;97.20;;;;;;1742034;28;20673;-73
2022/05/28 07:41:32;;;;;;;4.55;1.50;;;16.60;97.20;;;;;;1742010;28;20298;-74
2022/05/28 07:42:23;;;;;;;3.85;1.48;;;16.70;97.20;;;;;;1742031;28;20207;-73
2022/05/28 07:43:15;;;;;;;3.60;1.52;;;16.70;97.20;;;;;;1741630;28;20662;-73
2022/05/28 07:44:06;;;;;;;3.00;1.50;;;16.80;97.20;;;;;;1741828;28;20195;-74
2022/05/28 07:44:58;;;;;;;2.25;1.20;;;16.80;97.20;;;;;;1741996;28;20199;-73
2022/05/28 07:45:50;;;;;;;4.88;2.17;;;16.90;97.20;;;;;;1741726;28;20203;-73
2022/05/28 07:46:42;;;;;;;4.38;1.70;;;17.00;97.20;;;;;;1741701;28;20366;-73
2022/05/28 07:47:33;;;;;;;4.32;1.42;;;17.00;97.20;;;;;;1741835;28;20255;-73
2022/05/28 07:48:25;;;;;;;3.63;1.63;;;17.00;97.20;;;;;;1741899;28;20201;-73
2022/05/28 07:49:16;;;;;;;3.42;1.42;;;17.10;97.20;;;;;;1741868;28;20249;-73
2022/05/28 07:50:08;;;;;;;4.57;1.63;;;17.20;97.20;;;;;;1741899;28;20253;-73
2022/05/28 07:51:00;;;;;;;5.30;2.42;;;17.20;97.20;;;;;;1741969;28;20199;-73
2022/05/28 07:51:52;;;;;;;3.20;1.27;;;17.20;97.20;;;;;;1741795;28;20206;-73
2022/05/28 07:52:44;;;;;;;4.25;1.50;;;17.30;97.20;;;;;;1740835;28;20588;-74
2022/05/28 07:53:36;;;;;;;3.60;1.63;;;17.30;97.20;;;;;;1741866;28;20257;-73
2022/05/28 07:54:28;;;;;;;4.28;1.67;;;17.30;97.20;;;;;;1741692;28;20230;-73
2022/05/28 07:55:19;;;;;;;3.78;1.80;;;17.30;97.20;;;;;;1741795;28;20245;-73
2022/05/28 07:56:10;;;;;;;6.82;2.10;;;17.40;97.20;;;;;;1741760;28;20207;-73
2022/05/28 07:57:02;;;;;;;5.10;1.90;;;17.40;97.20;;;;;;1741667;28;20612;-73
2022/05/28 07:57:53;;;;;;;4.40;1.60;;;17.40;97.20;;;;;;1741733;28;20230;-73
2022/05/28 07:58:45;;;;;;;2.50;1.40;;;17.50;97.20;;;;;;1741882;28;20203;-73
2022/05/28 07:59:36;;;;;;;4.35;1.55;;;17.50;97.20;;;;;;1741865;28;20442;-73
2022/05/28 08:00:28;;;;;;;7.57;2.47;;;17.60;97.20;;;;;;1741569;28;20187;-73
2022/05/28 08:01:20;;;;;;;3.25;1.65;;;17.60;97.20;;;;;;1741909;28;20211;-73
2022/05/28 08:02:12;;;;;;;4.40;1.65;;;17.70;97.20;;;;;;1741890;28;20198;-73
2022/05/28 08:03:02;;;;;;;3.47;1.42;;;17.80;97.20;;;;;;1741960;28;20231;-73
2022/05/28 08:03:55;;;;;;;2.10;1.20;;;17.80;97.20;;;;;;1741804;28;20199;-73
2022/05/28 08:04:46;;;;;;;4.25;1.55;;;17.80;97.20;;;;;;1741802;28;20726;-73
2022/05/28 08:05:38;;;;;;;3.33;1.87;;;17.90;97.20;;;;;;1741795;28;20685;-73
2022/05/28 08:06:31;;;;;;;4.65;1.60;;;17.90;97.20;;;;;;1741678;28;20203;-73
2022/05/28 08:07:23;;;;;;;3.00;1.35;;;17.90;97.20;;;;;;1741670;28;21157;-73
2022/05/28 08:08:14;;;;;;;3.20;1.67;;;18.00;97.20;;;;;;1741942;28;20200;-74
2022/05/28 08:09:08;;;;;;;5.68;2.70;;;18.00;97.20;;;;;;1741836;28;20195;-73
2022/05/28 08:09:58;;;;;;;3.85;1.83;;;18.10;97.20;;;;;;1741745;28;20223;-73
2022/05/28 08:10:51;;;;;;;3.23;1.90;;;18.10;97.20;;;;;;1741730;28;20209;-73
2022/05/28 08:11:42;;;;;;;4.95;2.30;;;18.10;97.20;;;;;;1741875;28;20233;-73
2022/05/28 08:12:34;;;;;;;4.70;1.63;;;18.10;97.20;;;;;;1741751;28;20199;-74
2022/05/28 08:13:25;;;;;;;4.32;2.10;;;18.20;97.20;;;;;;1741709;28;20203;-73
2022/05/28 08:14:17;;;;;;;4.70;2.58;;;18.20;97.20;;;;;;1741707;28;20570;-73
2022/05/28 08:15:11;;;;;;;7.20;3.15;;;18.20;97.20;;;;;;1741827;28;20209;-74
2022/05/28 08:16:03;;;;;;;4.22;1.85;;;18.30;97.20;;;;;;1741694;28;20207;-74
2022/05/28 08:16:54;;;;;;;3.75;1.50;;;18.30;97.20;;;;;;1741493;28;20195;-73
2022/05/28 08:17:45;;;;;;;5.90;1.70;;;18.30;97.20;;;;;;1741753;28;20702;-74
2022/05/28 08:18:39;;;;;;;5.25;1.67;;;18.30;97.20;;;;;;1741723;28;20472;-73
2022/05/28 08:19:32;;;;;;;4.75;1.52;;;18.40;97.20;;;;;;1741744;28;20631;-73
2022/05/28 08:23:08;;;;;;;2.80;1.48;;;18.40;97.20;;;;;;1741735;28;20207;-73
2022/05/28 08:23:55;;;;;;;2.88;1.25;;;18.60;97.20;;;;;;1741701;28;20198;-73
2022/05/28 08:24:46;;;;;;;3.30;1.15;;;18.70;97.20;;;;;;1741629;28;20266;-73
2022/05/28 08:25:39;;;;;;;3.00;0.90;;;18.70;97.20;;;;;;1741782;28;20203;-73
2022/05/28 08:26:31;;;;;;;2.33;1.05;;;18.80;97.20;;;;;;1741689;28;20203;-72
2022/05/28 08:27:23;;;;;;;4.45;1.45;;;18.90;97.20;;;;;;1741420;28;20207;-73
2022/05/28 08:28:15;;;;;;;3.03;1.52;;;18.90;97.20;;;;;;1741442;28;20199;-73
2022/05/28 08:29:07;;;;;;;3.28;1.17;;;19.00;97.20;;;;;;1741773;28;20205;-74
2022/05/28 08:29:57;;;;;;;3.50;1.00;;;19.10;97.20;;;;;;1741883;28;20223;-73
2022/05/28 08:30:49;;;;;;;2.10;0.90;;;19.20;97.20;;;;;;1741752;28;20206;-73
2022/05/28 08:31:40;;;;;;;5.53;1.48;;;19.20;97.20;;;;;;1741596;28;20199;-73
2022/05/28 08:32:32;;;;;;;4.60;1.40;;;19.30;97.20;;;;;;1741550;28;20286;-73
2022/05/28 08:33:22;;;;;;;2.70;1.40;;;19.30;97.20;;;;;;1741435;28;20203;-73
2022/05/28 08:34:14;;;;;;;4.70;1.27;;;19.30;97.20;;;;;;1741521;28;20203;-73
2022/05/28 08:35:05;;;;;;;3.15;1.30;;;19.30;97.20;;;;;;1741630;28;20667;-73
2022/05/28 08:35:57;;;;;;;3.55;1.35;;;19.30;97.20;;;;;;1741551;28;20199;-73
2022/05/28 08:36:49;;;;;;;3.33;1.13;;;19.40;97.20;;;;;;1741250;28;20217;-73
2022/05/28 08:37:41;;;;;;;2.60;1.00;;;19.40;97.20;;;;;;1741653;28;20567;-73
2022/05/28 08:38:32;;;;;;;3.95;1.30;;;19.40;97.20;;;;;;1741481;28;20210;-73
2022/05/28 08:39:23;;;;;;;4.77;1.10;;;19.40;97.20;;;;;;1741665;28;20199;-73
2022/05/28 08:40:14;;;;;;;4.20;1.33;;;19.50;97.20;;;;;;1740737;28;20211;-73
2022/05/28 08:41:12;;;;;;;1.70;1.08;;;19.50;97.20;;;;;;1734689;28;20291;-73
2022/05/28 08:42:03;;;;;;;3.42;1.10;;;19.50;97.20;;;;;;1734751;28;20589;-73
2022/05/28 08:42:55;;;;;;;5.63;1.73;;;19.50;97.20;;;;;;1734775;28;20207;-73
2022/05/28 08:43:49;;;;;;;3.65;1.10;;;19.60;97.20;;;;;;1734773;28;20207;-73
2022/05/28 08:44:42;;;;;;;4.05;1.60;;;19.60;97.20;;;;;;1734598;28;20220;-73
2022/05/28 08:45:34;;;;;;;2.60;1.00;;;19.60;97.20;;;;;;1734763;28;20206;-73
2022/05/28 08:46:28;;;;;;;2.75;1.15;;;19.70;97.20;;;;;;1734709;28;20651;-73
2022/05/28 08:47:21;;;;;;;3.80;1.10;;;19.70;97.20;;;;;;1734349;28;20200;-73
2022/05/28 08:48:18;;;;;;;2.95;1.00;;;19.70;97.20;;;;;;1734631;28;20725;-73
2022/05/28 08:49:11;;;;;;;4.53;1.35;;;19.80;97.20;;;;;;1734722;28;20200;-76
2022/05/28 08:50:07;;;;;;;3.22;0.90;;;19.80;97.20;;;;;;1737789;28;20204;-73
2022/05/28 08:51:03;;;;;;;4.85;1.13;;;19.80;97.20;;;;;;1741695;28;20290;-73
2022/05/28 08:52:03;;;;;;;5.30;1.20;;;19.80;97.20;;;;;;1741654;28;20199;-72
2022/05/28 08:53:02;;;;;;;1.83;1.02;;;19.90;97.20;;;;;;1741581;28;20655;-73
2022/05/28 08:53:59;;;;;;;1.95;0.82;;;19.90;97.20;;;;;;1741639;28;20568;-73
2022/05/28 08:54:56;;;;;;;2.33;1.10;;;19.90;97.20;;;;;;1741351;28;20229;-76
2022/05/28 08:55:50;;;;;;;3.20;1.00;;;19.90;97.20;;;;;;1741391;28;20712;-74
2022/05/28 08:56:43;;;;;;;3.65;1.40;;;19.90;97.20;;;;;;1741156;28;20259;-74
2022/05/28 08:57:46;;;;;;;5.13;1.30;;;20.00;97.20;;;;;;1741363;28;20233;-73
2022/05/28 08:58:38;;;;;;;4.97;1.27;;;20.10;97.20;;;;;;1741546;28;20199;-74
2022/05/28 08:59:32;;;;;;;5.97;1.80;;;20.20;97.20;;;;;;1741402;28;20282;-74
2022/05/28 09:00:30;;;;;;;3.40;1.33;;;20.30;97.20;;;;;;1741451;28;20206;-74
2022/05/28 09:01:24;;;;;;;2.15;1.25;;;20.40;97.20;;;;;;1741468;28;20199;-74
2022/05/28 09:02:22;;;;;;;5.07;1.42;;;20.50;97.20;;;;;;1741407;28;20248;-74
2022/05/28 09:03:17;;;;;;;5.88;1.75;;;20.60;97.20;;;;;;1741140;28;20199;-74
2022/05/28 09:04:14;;;;;;;3.97;1.08;;;20.70;97.20;;;;;;1734111;28;20200;-74
2022/05/28 09:05:20;;;;;;;4.68;1.38;;;20.70;97.20;;;;;;1736678;28;20196;-75
2022/05/28 09:06:14;;;;;;;3.28;1.30;;;20.70;97.20;;;;;;1734481;28;20219;-73
2022/05/28 09:07:10;;;;;;;4.55;1.20;;;20.70;97.20;;;;;;1739294;28;20187;-73
2022/05/28 09:08:03;;;;;;;3.20;1.13;;;20.80;97.20;;;;;;1741379;28;20254;-74
2022/05/28 09:08:56;;;;;;;7.07;1.58;;;20.80;97.20;;;;;;1741503;28;20214;-74
2022/05/28 09:09:48;;;;;;;3.50;1.10;;;20.80;97.20;;;;;;1741380;28;20203;-74
2022/05/28 09:10:46;;;;;;;5.15;1.20;;;20.90;97.20;;;;;;1741347;28;20202;-74
2022/05/28 09:11:40;;;;;;;2.78;1.60;;;20.90;97.20;;;;;;1741436;28;20204;-74
2022/05/28 09:12:39;;;;;;;2.72;1.40;;;20.90;97.20;;;;;;1741084;28;20191;-73
2022/05/28 09:13:36;;;;;;;2.03;1.20;;;20.90;97.20;;;;;;1734506;28;20631;-74
2022/05/28 09:14:29;;;;;;;3.80;1.40;;;21.00;97.20;;;;;;1740154;28;20272;-74
2022/05/28 09:15:20;;;;;;;3.83;1.48;;;21.00;97.20;;;;;;1740533;28;20247;-75
2022/05/28 09:16:20;;;;;;;5.80;1.53;;;21.10;97.20;;;;;;1740042;28;20206;-74
2022/05/28 09:17:25;;;;;;;4.75;1.85;;;21.20;97.20;;;;;;1736720;28;20474;-74
2022/05/28 09:18:17;;;;;;;4.68;1.48;;;21.30;97.20;;;;;;1740475;28;20207;-74
2022/05/28 09:19:14;;;;;;;3.67;1.25;;;21.40;97.20;;;;;;1736618;28;20199;-73
2022/05/28 09:20:09;;;;;;;2.42;1.30;;;21.50;97.20;;;;;;1740272;28;20295;-74
2022/05/28 09:21:01;;;;;;;2.20;1.30;;;21.50;97.20;;;;;;1734927;28;20264;-74
2022/05/28 09:21:52;;;;;;;2.85;1.20;;;21.60;97.20;;;;;;1738700;28;20199;-74
2022/05/28 09:22:45;;;;;;;3.30;2.03;;;21.60;97.20;;;;;;1734623;28;20188;-74
2022/05/28 09:23:43;;;;;;;5.75;4.65;;;21.60;97.20;;;;;;1740964;28;20222;-74
2022/05/28 09:24:35;;;;;;;4.13;3.20;;;21.70;97.20;;;;;;1740870;28;20213;-74
2022/05/28 09:25:32;;;;;;;8.02;5.57;;;21.70;97.20;;;;;;1741313;28;20203;-74
2022/05/28 09:26:30;;;;;;;11.70;4.20;;;21.80;97.20;;;;;;1741304;28;20283;-74
2022/05/28 09:27:29;;;;;;;2.88;2.38;;;21.90;97.20;;;;;;1741098;28;20207;-74
2022/05/28 09:28:38;;;;;;;3.35;2.08;;;22.10;97.20;;;;;;1741106;28;20594;-74
2022/05/28 09:29:58;;;;;;;4.68;1.70;;;22.20;97.20;;;;;;1741033;28;20208;-74
2022/05/28 09:31:00;;;;;;;3.25;1.27;;;22.40;97.20;;;;;;1725710;28;20312;-74
2022/05/28 09:31:59;;;;;;;5.07;1.30;;;22.50;97.20;;;;;;1734471;28;20219;-74
2022/05/28 09:33:09;;;;;;;2.90;1.25;;;22.70;97.20;;;;;;1741245;28;20210;-74
2022/05/28 09:34:22;;;;;;;5.07;1.55;;;22.70;97.20;;;;;;1740710;28;20203;-74
2022/05/28 09:35:20;;;;;;;3.20;1.30;;;22.90;97.20;;;;;;1740629;28;20210;-73
2022/05/28 09:36:22;;;;;;;3.13;1.13;;;22.90;97.20;;;;;;1740460;28;20227;-74
2022/05/28 09:37:21;;;;;;;3.20;1.10;;;22.90;97.20;;;;;;1740259;28;20243;-73